sensor_id;sensor_type;location;lat;lon;timestamp;temperature;humidity
33715;DHT22;20043;50.998;4.754;2024-03-08T00:02:00;5.80;99.90
33715;DHT22;20043;50.998;4.754;2024-03-08T00:04:25;5.80;99.90
33715;DHT22;20043;50.998;4.754;2024-03-08T00:06:51;5.70;99.90
33715;DHT22;20043;50.998;4.754;2024-03-08T00:09:17;5.90;99.90
33715;DHT22;20043;50.998;4.754;2024-03-08T00:11:42;5.90;99.90
33715;DHT22;20043;50.998;4.754;2024-03-08T00:14:08;5.90;99.90
33715;DHT22;20043;50.998;4.754;2024-03-08T00:16:33;5.80;99.90
33715;DHT22;20043;50.998;4.754;2024-03-08T00:19:00;5.80;99.90
33715;DHT22;20043;50.998;4.754;2024-03-08T00:21:26;5.80;99.90
33715;DHT22;20043;50.998;4.754;2024-03-08T00:23:53;5.80;99.90
33715;DHT22;20043;50.998;4.754;2024-03-08T00:26:20;5.80;99.90
33715;DHT22;20043;50.998;4.754;2024-03-08T00:28:48;5.90;99.90
33715;DHT22;20043;50.998;4.754;2024-03-08T00:31:14;5.90;99.90
33715;DHT22;20043;50.998;4.754;2024-03-08T00:33:42;5.80;99.90
33715;DHT22;20043;50.998;4.754;2024-03-08T00:36:08;5.80;99.90
33715;DHT22;20043;50.998;4.754;2024-03-08T00:38:33;5.70;99.90
33715;DHT22;20043;50.998;4.754;2024-03-08T00:41:00;5.90;99.90
33715;DHT22;20043;50.998;4.754;2024-03-08T00:43:25;6.10;99.90
33715;DHT22;20043;50.998;4.754;2024-03-08T00:45:51;6.10;99.90
33715;DHT22;20043;50.998;4.754;2024-03-08T00:48:17;6.00;99.90
33715;DHT22;20043;50.998;4.754;2024-03-08T00:50:42;6.00;99.90
33715;DHT22;20043;50.998;4.754;2024-03-08T00:53:11;5.90;99.90
33715;DHT22;20043;50.998;4.754;2024-03-08T00:55:37;5.90;99.90
33715;DHT22;20043;50.998;4.754;2024-03-08T00:58:04;5.80;99.90
33715;DHT22;20043;50.998;4.754;2024-03-08T01:00:30;5.80;99.90
33715;DHT22;20043;50.998;4.754;2024-03-08T01:02:55;5.80;99.90
33715;DHT22;20043;50.998;4.754;2024-03-08T01:05:21;5.80;99.90
33715;DHT22;20043;50.998;4.754;2024-03-08T01:07:50;5.80;99.90
33715;DHT22;20043;50.998;4.754;2024-03-08T01:10:16;5.70;99.90
33715;DHT22;20043;50.998;4.754;2024-03-08T01:12:41;5.70;99.90
33715;DHT22;20043;50.998;4.754;2024-03-08T01:15:09;5.70;99.90
33715;DHT22;20043;50.998;4.754;2024-03-08T01:17:36;5.60;99.90
33715;DHT22;20043;50.998;4.754;2024-03-08T01:20:02;5.60;99.90
33715;DHT22;20043;50.998;4.754;2024-03-08T01:22:28;5.60;99.90
33715;DHT22;20043;50.998;4.754;2024-03-08T01:24:55;5.70;99.90
33715;DHT22;20043;50.998;4.754;2024-03-08T01:27:21;5.70;99.90
33715;DHT22;20043;50.998;4.754;2024-03-08T01:29:47;5.60;99.90
33715;DHT22;20043;50.998;4.754;2024-03-08T01:32:13;5.50;99.90
33715;DHT22;20043;50.998;4.754;2024-03-08T01:34:39;5.50;99.90
33715;DHT22;20043;50.998;4.754;2024-03-08T01:37:04;5.50;99.90
33715;DHT22;20043;50.998;4.754;2024-03-08T01:39:30;5.40;99.90
33715;DHT22;20043;50.998;4.754;2024-03-08T01:41:57;5.50;99.90
33715;DHT22;20043;50.998;4.754;2024-03-08T01:44:23;5.50;99.90
33715;DHT22;20043;50.998;4.754;2024-03-08T01:46:49;5.40;99.90
33715;DHT22;20043;50.998;4.754;2024-03-08T01:49:18;5.40;99.90
33715;DHT22;20043;50.998;4.754;2024-03-08T01:51:46;5.50;99.90
33715;DHT22;20043;50.998;4.754;2024-03-08T01:54:14;5.20;99.90
33715;DHT22;20043;50.998;4.754;2024-03-08T01:56:41;5.30;99.90
33715;DHT22;20043;50.998;4.754;2024-03-08T01:59:07;5.30;99.90
33715;DHT22;20043;50.998;4.754;2024-03-08T02:01:33;5.30;99.90
33715;DHT22;20043;50.998;4.754;2024-03-08T02:03:59;5.30;99.90
33715;DHT22;20043;50.998;4.754;2024-03-08T02:06:25;5.30;99.90
33715;DHT22;20043;50.998;4.754;2024-03-08T02:08:51;5.20;99.90
33715;DHT22;20043;50.998;4.754;2024-03-08T02:11:17;5.30;99.90
33715;DHT22;20043;50.998;4.754;2024-03-08T02:13:44;5.20;99.90
33715;DHT22;20043;50.998;4.754;2024-03-08T02:16:10;5.20;99.90
33715;DHT22;20043;50.998;4.754;2024-03-08T02:18:36;5.30;99.90
33715;DHT22;20043;50.998;4.754;2024-03-08T02:21:03;5.20;99.90
33715;DHT22;20043;50.998;4.754;2024-03-08T02:23:29;5.20;99.90
33715;DHT22;20043;50.998;4.754;2024-03-08T02:25:56;5.00;99.90
33715;DHT22;20043;50.998;4.754;2024-03-08T02:28:22;5.10;99.90
33715;DHT22;20043;50.998;4.754;2024-03-08T02:30:48;5.10;99.90
33715;DHT22;20043;50.998;4.754;2024-03-08T02:33:15;5.00;99.90
33715;DHT22;20043;50.998;4.754;2024-03-08T02:35:44;5.10;99.90
33715;DHT22;20043;50.998;4.754;2024-03-08T02:38:17;5.00;99.90
33715;DHT22;20043;50.998;4.754;2024-03-08T02:40:51;5.00;99.90
33715;DHT22;20043;50.998;4.754;2024-03-08T02:43:18;5.00;99.90
33715;DHT22;20043;50.998;4.754;2024-03-08T02:45:45;4.80;99.90
33715;DHT22;20043;50.998;4.754;2024-03-08T02:48:11;4.70;99.90
33715;DHT22;20043;50.998;4.754;2024-03-08T02:50:37;4.70;99.90
33715;DHT22;20043;50.998;4.754;2024-03-08T02:53:05;4.70;99.90
33715;DHT22;20043;50.998;4.754;2024-03-08T02:55:31;4.60;99.90
33715;DHT22;20043;50.998;4.754;2024-03-08T02:57:57;4.60;99.90
33715;DHT22;20043;50.998;4.754;2024-03-08T03:00:23;4.60;99.90
33715;DHT22;20043;50.998;4.754;2024-03-08T03:02:50;4.70;99.90
33715;DHT22;20043;50.998;4.754;2024-03-08T03:05:23;4.60;99.90
33715;DHT22;20043;50.998;4.754;2024-03-08T03:07:49;4.80;99.90
33715;DHT22;20043;50.998;4.754;2024-03-08T03:10:17;4.70;99.90
33715;DHT22;20043;50.998;4.754;2024-03-08T03:12:43;4.60;99.90
33715;DHT22;20043;50.998;4.754;2024-03-08T03:15:10;4.60;99.90
33715;DHT22;20043;50.998;4.754;2024-03-08T03:17:37;4.60;99.90
33715;DHT22;20043;50.998;4.754;2024-03-08T03:20:05;4.70;99.90
33715;DHT22;20043;50.998;4.754;2024-03-08T03:22:36;4.60;99.90
33715;DHT22;20043;50.998;4.754;2024-03-08T03:25:03;4.50;99.90
33715;DHT22;20043;50.998;4.754;2024-03-08T03:27:29;4.60;99.90
33715;DHT22;20043;50.998;4.754;2024-03-08T03:29:55;4.40;99.90
33715;DHT22;20043;50.998;4.754;2024-03-08T03:32:23;4.40;99.90
33715;DHT22;20043;50.998;4.754;2024-03-08T03:34:49;4.30;99.90
33715;DHT22;20043;50.998;4.754;2024-03-08T03:37:21;4.50;99.90
33715;DHT22;20043;50.998;4.754;2024-03-08T03:39:47;4.30;99.90
33715;DHT22;20043;50.998;4.754;2024-03-08T03:42:19;4.40;99.90
33715;DHT22;20043;50.998;4.754;2024-03-08T03:44:46;4.40;99.90
33715;DHT22;20043;50.998;4.754;2024-03-08T03:47:12;4.50;99.90
33715;DHT22;20043;50.998;4.754;2024-03-08T03:49:38;4.60;99.90
33715;DHT22;20043;50.998;4.754;2024-03-08T03:52:04;4.50;99.90
33715;DHT22;20043;50.998;4.754;2024-03-08T03:54:31;4.50;99.90
33715;DHT22;20043;50.998;4.754;2024-03-08T03:56:56;4.50;99.90
33715;DHT22;20043;50.998;4.754;2024-03-08T03:59:22;4.40;99.90
33715;DHT22;20043;50.998;4.754;2024-03-08T04:01:48;4.40;99.90
33715;DHT22;20043;50.998;4.754;2024-03-08T04:04:15;4.40;99.90
33715;DHT22;20043;50.998;4.754;2024-03-08T04:06:40;4.30;99.90
33715;DHT22;20043;50.998;4.754;2024-03-08T04:09:07;4.20;99.90
33715;DHT22;20043;50.998;4.754;2024-03-08T04:11:32;4.20;99.90
33715;DHT22;20043;50.998;4.754;2024-03-08T04:13:58;4.20;99.90
33715;DHT22;20043;50.998;4.754;2024-03-08T04:16:24;4.10;99.90
33715;DHT22;20043;50.998;4.754;2024-03-08T04:18:51;4.10;99.90
33715;DHT22;20043;50.998;4.754;2024-03-08T04:21:17;3.90;99.90
33715;DHT22;20043;50.998;4.754;2024-03-08T04:23:44;4.00;99.90
33715;DHT22;20043;50.998;4.754;2024-03-08T04:26:10;4.10;99.90
33715;DHT22;20043;50.998;4.754;2024-03-08T04:28:36;4.20;99.90
33715;DHT22;20043;50.998;4.754;2024-03-08T04:31:03;4.20;99.90
33715;DHT22;20043;50.998;4.754;2024-03-08T04:33:29;4.30;99.90
33715;DHT22;20043;50.998;4.754;2024-03-08T04:35:55;4.50;99.90
33715;DHT22;20043;50.998;4.754;2024-03-08T04:38:21;4.40;99.90
33715;DHT22;20043;50.998;4.754;2024-03-08T04:40:47;4.20;99.90
33715;DHT22;20043;50.998;4.754;2024-03-08T04:43:12;4.10;99.90
33715;DHT22;20043;50.998;4.754;2024-03-08T04:45:39;4.10;99.90
33715;DHT22;20043;50.998;4.754;2024-03-08T04:48:06;4.10;99.90
33715;DHT22;20043;50.998;4.754;2024-03-08T04:50:33;4.20;99.90
33715;DHT22;20043;50.998;4.754;2024-03-08T04:52:59;4.20;99.90
33715;DHT22;20043;50.998;4.754;2024-03-08T04:55:25;4.20;99.90
33715;DHT22;20043;50.998;4.754;2024-03-08T04:57:50;4.20;99.90
33715;DHT22;20043;50.998;4.754;2024-03-08T05:00:16;4.20;99.90
33715;DHT22;20043;50.998;4.754;2024-03-08T05:02:42;4.10;99.90
33715;DHT22;20043;50.998;4.754;2024-03-08T05:05:08;4.20;99.90
33715;DHT22;20043;50.998;4.754;2024-03-08T05:07:38;4.10;99.90
33715;DHT22;20043;50.998;4.754;2024-03-08T05:10:06;3.90;99.90
33715;DHT22;20043;50.998;4.754;2024-03-08T05:12:32;3.80;99.90
33715;DHT22;20043;50.998;4.754;2024-03-08T05:14:58;3.80;99.90
33715;DHT22;20043;50.998;4.754;2024-03-08T05:17:24;3.80;99.90
33715;DHT22;20043;50.998;4.754;2024-03-08T05:19:50;3.90;99.90
33715;DHT22;20043;50.998;4.754;2024-03-08T05:22:15;4.00;99.90
33715;DHT22;20043;50.998;4.754;2024-03-08T05:24:41;4.00;99.90
33715;DHT22;20043;50.998;4.754;2024-03-08T05:27:07;4.00;99.90
33715;DHT22;20043;50.998;4.754;2024-03-08T05:29:33;4.00;99.90
33715;DHT22;20043;50.998;4.754;2024-03-08T05:31:59;4.00;99.90
33715;DHT22;20043;50.998;4.754;2024-03-08T05:34:24;4.00;99.90
33715;DHT22;20043;50.998;4.754;2024-03-08T05:36:51;4.00;99.90
33715;DHT22;20043;50.998;4.754;2024-03-08T05:39:18;4.10;99.90
33715;DHT22;20043;50.998;4.754;2024-03-08T05:41:45;4.20;99.90
33715;DHT22;20043;50.998;4.754;2024-03-08T05:44:12;4.10;99.90
33715;DHT22;20043;50.998;4.754;2024-03-08T05:46:38;4.10;99.90
33715;DHT22;20043;50.998;4.754;2024-03-08T05:49:05;4.10;99.90
33715;DHT22;20043;50.998;4.754;2024-03-08T05:51:32;4.00;99.90
33715;DHT22;20043;50.998;4.754;2024-03-08T05:54:00;4.00;99.90
33715;DHT22;20043;50.998;4.754;2024-03-08T05:56:26;4.10;99.90
33715;DHT22;20043;50.998;4.754;2024-03-08T05:58:54;3.90;99.90
33715;DHT22;20043;50.998;4.754;2024-03-08T06:01:20;3.90;99.90
33715;DHT22;20043;50.998;4.754;2024-03-08T06:03:45;3.80;99.90
33715;DHT22;20043;50.998;4.754;2024-03-08T06:06:13;3.80;99.90
33715;DHT22;20043;50.998;4.754;2024-03-08T06:08:39;3.80;99.90
33715;DHT22;20043;50.998;4.754;2024-03-08T06:11:04;3.80;99.90
33715;DHT22;20043;50.998;4.754;2024-03-08T06:13:32;3.90;99.90
33715;DHT22;20043;50.998;4.754;2024-03-08T06:15:59;3.80;99.90
33715;DHT22;20043;50.998;4.754;2024-03-08T06:18:26;3.70;99.90
33715;DHT22;20043;50.998;4.754;2024-03-08T06:20:51;3.80;99.90
33715;DHT22;20043;50.998;4.754;2024-03-08T06:23:18;3.90;99.90
33715;DHT22;20043;50.998;4.754;2024-03-08T06:25:44;4.00;99.90
33715;DHT22;20043;50.998;4.754;2024-03-08T06:28:10;4.00;99.90
33715;DHT22;20043;50.998;4.754;2024-03-08T06:30:36;4.10;99.90
33715;DHT22;20043;50.998;4.754;2024-03-08T06:33:01;4.20;99.90
33715;DHT22;20043;50.998;4.754;2024-03-08T06:35:27;4.10;99.90
33715;DHT22;20043;50.998;4.754;2024-03-08T06:37:53;4.10;99.90
33715;DHT22;20043;50.998;4.754;2024-03-08T06:40:19;4.10;99.90
33715;DHT22;20043;50.998;4.754;2024-03-08T06:42:44;4.00;99.90
33715;DHT22;20043;50.998;4.754;2024-03-08T06:45:11;4.00;99.90
33715;DHT22;20043;50.998;4.754;2024-03-08T06:47:37;4.00;99.90
33715;DHT22;20043;50.998;4.754;2024-03-08T06:50:03;4.00;99.90
33715;DHT22;20043;50.998;4.754;2024-03-08T06:52:29;4.00;99.90
33715;DHT22;20043;50.998;4.754;2024-03-08T06:54:55;4.10;99.90
33715;DHT22;20043;50.998;4.754;2024-03-08T06:57:22;4.20;99.90
33715;DHT22;20043;50.998;4.754;2024-03-08T06:59:49;4.30;99.90
33715;DHT22;20043;50.998;4.754;2024-03-08T07:02:14;4.30;99.90
33715;DHT22;20043;50.998;4.754;2024-03-08T07:04:46;4.20;99.90
33715;DHT22;20043;50.998;4.754;2024-03-08T07:07:12;4.40;99.90
33715;DHT22;20043;50.998;4.754;2024-03-08T07:09:38;4.40;99.90
33715;DHT22;20043;50.998;4.754;2024-03-08T07:12:04;4.40;99.90
33715;DHT22;20043;50.998;4.754;2024-03-08T07:14:29;4.40;99.90
33715;DHT22;20043;50.998;4.754;2024-03-08T07:16:56;4.30;99.90
33715;DHT22;20043;50.998;4.754;2024-03-08T07:19:22;4.40;99.90
33715;DHT22;20043;50.998;4.754;2024-03-08T07:21:48;4.40;99.90
33715;DHT22;20043;50.998;4.754;2024-03-08T07:24:14;4.50;99.90
33715;DHT22;20043;50.998;4.754;2024-03-08T07:26:39;4.50;99.90
33715;DHT22;20043;50.998;4.754;2024-03-08T07:29:05;4.40;99.90
33715;DHT22;20043;50.998;4.754;2024-03-08T07:31:31;4.40;99.90
33715;DHT22;20043;50.998;4.754;2024-03-08T07:34:15;4.60;99.90
33715;DHT22;20043;50.998;4.754;2024-03-08T07:36:42;4.60;99.90
33715;DHT22;20043;50.998;4.754;2024-03-08T07:39:07;4.80;99.90
33715;DHT22;20043;50.998;4.754;2024-03-08T07:41:37;4.80;99.90
33715;DHT22;20043;50.998;4.754;2024-03-08T07:44:06;4.90;99.90
33715;DHT22;20043;50.998;4.754;2024-03-08T07:46:31;5.00;99.90
33715;DHT22;20043;50.998;4.754;2024-03-08T07:48:59;5.30;99.90
33715;DHT22;20043;50.998;4.754;2024-03-08T07:51:25;5.30;99.90
33715;DHT22;20043;50.998;4.754;2024-03-08T07:53:51;5.20;99.90
33715;DHT22;20043;50.998;4.754;2024-03-08T07:56:16;5.30;99.90
33715;DHT22;20043;50.998;4.754;2024-03-08T07:58:44;5.50;99.90
33715;DHT22;20043;50.998;4.754;2024-03-08T08:01:17;5.50;99.90
33715;DHT22;20043;50.998;4.754;2024-03-08T08:03:42;5.70;99.90
33715;DHT22;20043;50.998;4.754;2024-03-08T08:06:08;5.70;99.90
33715;DHT22;20043;50.998;4.754;2024-03-08T08:08:33;5.80;99.90
33715;DHT22;20043;50.998;4.754;2024-03-08T08:10:59;5.80;99.90
33715;DHT22;20043;50.998;4.754;2024-03-08T08:13:26;5.80;99.90
33715;DHT22;20043;50.998;4.754;2024-03-08T08:15:53;6.00;99.90
33715;DHT22;20043;50.998;4.754;2024-03-08T08:18:18;6.10;99.90
33715;DHT22;20043;50.998;4.754;2024-03-08T08:20:47;6.00;99.90
33715;DHT22;20043;50.998;4.754;2024-03-08T08:23:12;6.00;99.90
33715;DHT22;20043;50.998;4.754;2024-03-08T08:25:39;6.10;99.90
33715;DHT22;20043;50.998;4.754;2024-03-08T08:28:04;6.20;99.90
33715;DHT22;20043;50.998;4.754;2024-03-08T08:30:30;6.20;99.90
33715;DHT22;20043;50.998;4.754;2024-03-08T08:32:58;6.30;99.90
33715;DHT22;20043;50.998;4.754;2024-03-08T08:35:26;6.50;99.90
33715;DHT22;20043;50.998;4.754;2024-03-08T08:37:52;6.50;99.90
33715;DHT22;20043;50.998;4.754;2024-03-08T08:40:17;6.50;99.90
33715;DHT22;20043;50.998;4.754;2024-03-08T08:42:44;6.70;99.90
33715;DHT22;20043;50.998;4.754;2024-03-08T08:45:11;6.70;99.90
33715;DHT22;20043;50.998;4.754;2024-03-08T08:47:37;6.90;99.90
33715;DHT22;20043;50.998;4.754;2024-03-08T08:50:04;6.90;99.90
33715;DHT22;20043;50.998;4.754;2024-03-08T08:52:31;6.80;99.90
33715;DHT22;20043;50.998;4.754;2024-03-08T08:54:57;7.00;99.90
33715;DHT22;20043;50.998;4.754;2024-03-08T08:57:22;7.30;99.90
33715;DHT22;20043;50.998;4.754;2024-03-08T08:59:48;7.60;99.90
33715;DHT22;20043;50.998;4.754;2024-03-08T09:02:14;7.70;99.90
33715;DHT22;20043;50.998;4.754;2024-03-08T09:04:40;7.70;99.90
33715;DHT22;20043;50.998;4.754;2024-03-08T09:07:06;7.70;99.90
33715;DHT22;20043;50.998;4.754;2024-03-08T09:09:32;7.70;99.90
33715;DHT22;20043;50.998;4.754;2024-03-08T09:11:58;7.80;99.90
33715;DHT22;20043;50.998;4.754;2024-03-08T09:14:23;7.70;99.90
33715;DHT22;20043;50.998;4.754;2024-03-08T09:16:51;7.70;99.90
33715;DHT22;20043;50.998;4.754;2024-03-08T09:19:17;7.80;99.90
33715;DHT22;20043;50.998;4.754;2024-03-08T09:21:44;8.00;99.90
33715;DHT22;20043;50.998;4.754;2024-03-08T09:24:10;8.20;99.90
33715;DHT22;20043;50.998;4.754;2024-03-08T09:26:36;8.30;99.90
33715;DHT22;20043;50.998;4.754;2024-03-08T09:29:02;8.30;99.90
33715;DHT22;20043;50.998;4.754;2024-03-08T09:31:28;8.30;99.90
33715;DHT22;20043;50.998;4.754;2024-03-08T09:33:54;8.40;99.90
33715;DHT22;20043;50.998;4.754;2024-03-08T09:36:19;8.40;99.90
33715;DHT22;20043;50.998;4.754;2024-03-08T09:38:53;8.50;99.90
33715;DHT22;20043;50.998;4.754;2024-03-08T09:41:18;8.60;99.90
33715;DHT22;20043;50.998;4.754;2024-03-08T09:43:45;8.80;99.90
33715;DHT22;20043;50.998;4.754;2024-03-08T09:46:11;8.80;99.90
33715;DHT22;20043;50.998;4.754;2024-03-08T09:48:50;8.80;99.90
33715;DHT22;20043;50.998;4.754;2024-03-08T09:51:16;8.90;99.90
33715;DHT22;20043;50.998;4.754;2024-03-08T09:53:42;9.00;99.90
33715;DHT22;20043;50.998;4.754;2024-03-08T09:56:08;9.20;99.90
33715;DHT22;20043;50.998;4.754;2024-03-08T09:58:34;9.20;99.90
33715;DHT22;20043;50.998;4.754;2024-03-08T10:01:00;9.20;99.90
33715;DHT22;20043;50.998;4.754;2024-03-08T10:03:30;9.30;99.90
33715;DHT22;20043;50.998;4.754;2024-03-08T10:05:59;9.40;99.90
33715;DHT22;20043;50.998;4.754;2024-03-08T10:08:29;9.50;99.90
33715;DHT22;20043;50.998;4.754;2024-03-08T10:10:58;9.50;99.90
33715;DHT22;20043;50.998;4.754;2024-03-08T10:13:25;9.50;99.90
33715;DHT22;20043;50.998;4.754;2024-03-08T10:15:52;9.40;99.90
33715;DHT22;20043;50.998;4.754;2024-03-08T10:18:18;9.60;99.90
33715;DHT22;20043;50.998;4.754;2024-03-08T10:20:44;9.70;99.90
33715;DHT22;20043;50.998;4.754;2024-03-08T10:23:09;9.70;99.90
33715;DHT22;20043;50.998;4.754;2024-03-08T10:25:36;9.80;99.90
33715;DHT22;20043;50.998;4.754;2024-03-08T10:28:05;9.80;99.90
33715;DHT22;20043;50.998;4.754;2024-03-08T10:30:31;9.90;99.90
33715;DHT22;20043;50.998;4.754;2024-03-08T10:32:56;9.90;99.90
33715;DHT22;20043;50.998;4.754;2024-03-08T10:35:23;9.80;99.90
33715;DHT22;20043;50.998;4.754;2024-03-08T10:37:50;9.80;99.90
33715;DHT22;20043;50.998;4.754;2024-03-08T10:40:29;10.00;99.90
33715;DHT22;20043;50.998;4.754;2024-03-08T10:42:56;9.90;99.90
33715;DHT22;20043;50.998;4.754;2024-03-08T10:45:41;10.00;99.90
33715;DHT22;20043;50.998;4.754;2024-03-08T10:48:30;10.10;99.90
33715;DHT22;20043;50.998;4.754;2024-03-08T10:51:02;10.20;99.90
33715;DHT22;20043;50.998;4.754;2024-03-08T10:53:29;10.10;99.90
33715;DHT22;20043;50.998;4.754;2024-03-08T10:55:57;10.10;99.90
33715;DHT22;20043;50.998;4.754;2024-03-08T10:58:25;10.10;99.90
33715;DHT22;20043;50.998;4.754;2024-03-08T11:00:53;10.20;99.90
33715;DHT22;20043;50.998;4.754;2024-03-08T11:06:04;10.30;99.90
33715;DHT22;20043;50.998;4.754;2024-03-08T11:08:31;10.30;99.90
33715;DHT22;20043;50.998;4.754;2024-03-08T11:10:56;10.50;99.90
33715;DHT22;20043;50.998;4.754;2024-03-08T11:13:38;10.60;99.90
33715;DHT22;20043;50.998;4.754;2024-03-08T11:16:10;10.80;99.90
33715;DHT22;20043;50.998;4.754;2024-03-08T11:18:36;10.70;99.90
33715;DHT22;20043;50.998;4.754;2024-03-08T11:21:08;10.70;99.90
33715;DHT22;20043;50.998;4.754;2024-03-08T11:23:38;10.60;99.90
33715;DHT22;20043;50.998;4.754;2024-03-08T11:26:17;10.80;99.90
33715;DHT22;20043;50.998;4.754;2024-03-08T11:28:43;10.90;99.90
33715;DHT22;20043;50.998;4.754;2024-03-08T11:33:36;11.00;99.90
33715;DHT22;20043;50.998;4.754;2024-03-08T11:36:12;11.00;99.90
33715;DHT22;20043;50.998;4.754;2024-03-08T11:38:43;10.90;99.90
33715;DHT22;20043;50.998;4.754;2024-03-08T11:41:19;10.90;99.90
33715;DHT22;20043;50.998;4.754;2024-03-08T11:43:48;11.10;99.90
33715;DHT22;20043;50.998;4.754;2024-03-08T11:46:15;11.30;99.90
33715;DHT22;20043;50.998;4.754;2024-03-08T11:48:43;11.50;99.90
33715;DHT22;20043;50.998;4.754;2024-03-08T11:51:13;11.70;99.90
33715;DHT22;20043;50.998;4.754;2024-03-08T11:53:39;11.80;99.90
33715;DHT22;20043;50.998;4.754;2024-03-08T11:56:10;11.70;99.90
33715;DHT22;20043;50.998;4.754;2024-03-08T11:58:37;11.80;99.90
33715;DHT22;20043;50.998;4.754;2024-03-08T12:01:04;11.70;99.90
33715;DHT22;20043;50.998;4.754;2024-03-08T12:03:31;11.60;99.90
33715;DHT22;20043;50.998;4.754;2024-03-08T12:05:59;11.80;99.90
33715;DHT22;20043;50.998;4.754;2024-03-08T12:08:25;11.90;99.90
33715;DHT22;20043;50.998;4.754;2024-03-08T12:10:54;11.70;99.90
33715;DHT22;20043;50.998;4.754;2024-03-08T12:13:26;11.90;99.90
33715;DHT22;20043;50.998;4.754;2024-03-08T12:15:58;11.90;99.90
33715;DHT22;20043;50.998;4.754;2024-03-08T12:18:27;12.00;99.90
33715;DHT22;20043;50.998;4.754;2024-03-08T12:21:13;12.00;99.90
33715;DHT22;20043;50.998;4.754;2024-03-08T12:23:44;12.00;99.90
33715;DHT22;20043;50.998;4.754;2024-03-08T12:28:40;12.10;99.90
33715;DHT22;20043;50.998;4.754;2024-03-08T12:31:07;12.10;99.90
33715;DHT22;20043;50.998;4.754;2024-03-08T12:33:46;12.10;99.90
33715;DHT22;20043;50.998;4.754;2024-03-08T12:36:14;12.10;99.90
33715;DHT22;20043;50.998;4.754;2024-03-08T12:38:47;12.00;99.90
33715;DHT22;20043;50.998;4.754;2024-03-08T12:41:19;12.00;99.90
33715;DHT22;20043;50.998;4.754;2024-03-08T12:43:46;12.10;99.90
33715;DHT22;20043;50.998;4.754;2024-03-08T12:46:23;12.10;99.90
33715;DHT22;20043;50.998;4.754;2024-03-08T12:48:52;12.00;99.90
33715;DHT22;20043;50.998;4.754;2024-03-08T12:51:20;12.10;99.90
33715;DHT22;20043;50.998;4.754;2024-03-08T12:53:46;12.10;99.90
33715;DHT22;20043;50.998;4.754;2024-03-08T12:56:13;12.20;99.90
33715;DHT22;20043;50.998;4.754;2024-03-08T12:58:40;12.20;99.90
33715;DHT22;20043;50.998;4.754;2024-03-08T13:01:06;12.20;99.90
33715;DHT22;20043;50.998;4.754;2024-03-08T13:03:33;12.30;99.90
33715;DHT22;20043;50.998;4.754;2024-03-08T13:06:04;12.40;99.90
33715;DHT22;20043;50.998;4.754;2024-03-08T13:08:37;12.40;99.90
33715;DHT22;20043;50.998;4.754;2024-03-08T13:11:05;12.40;99.90
33715;DHT22;20043;50.998;4.754;2024-03-08T13:13:31;12.40;99.90
33715;DHT22;20043;50.998;4.754;2024-03-08T13:15:56;12.50;99.90
33715;DHT22;20043;50.998;4.754;2024-03-08T13:18:22;12.60;99.90
33715;DHT22;20043;50.998;4.754;2024-03-08T13:20:48;12.70;99.90
33715;DHT22;20043;50.998;4.754;2024-03-08T13:23:17;12.60;99.90
33715;DHT22;20043;50.998;4.754;2024-03-08T13:25:43;12.60;99.90
33715;DHT22;20043;50.998;4.754;2024-03-08T13:28:09;12.70;99.90
33715;DHT22;20043;50.998;4.754;2024-03-08T13:30:36;12.80;99.90
33715;DHT22;20043;50.998;4.754;2024-03-08T13:33:02;12.80;99.90
33715;DHT22;20043;50.998;4.754;2024-03-08T13:35:30;12.80;99.90
33715;DHT22;20043;50.998;4.754;2024-03-08T13:37:56;12.70;99.90
33715;DHT22;20043;50.998;4.754;2024-03-08T13:40:22;12.80;99.90
33715;DHT22;20043;50.998;4.754;2024-03-08T13:42:48;12.90;99.90
33715;DHT22;20043;50.998;4.754;2024-03-08T13:45:15;12.90;99.90
33715;DHT22;20043;50.998;4.754;2024-03-08T13:47:47;13.00;99.90
33715;DHT22;20043;50.998;4.754;2024-03-08T13:50:13;12.90;99.90
33715;DHT22;20043;50.998;4.754;2024-03-08T13:52:39;12.90;99.90
33715;DHT22;20043;50.998;4.754;2024-03-08T13:55:06;12.90;99.90
33715;DHT22;20043;50.998;4.754;2024-03-08T13:57:32;13.00;99.90
33715;DHT22;20043;50.998;4.754;2024-03-08T13:59:58;13.00;99.90
33715;DHT22;20043;50.998;4.754;2024-03-08T14:02:24;13.00;99.90
33715;DHT22;20043;50.998;4.754;2024-03-08T14:04:54;12.90;99.90
33715;DHT22;20043;50.998;4.754;2024-03-08T14:07:20;13.10;99.90
33715;DHT22;20043;50.998;4.754;2024-03-08T14:09:46;13.20;99.90
33715;DHT22;20043;50.998;4.754;2024-03-08T14:12:12;13.20;99.90
33715;DHT22;20043;50.998;4.754;2024-03-08T14:14:40;13.20;99.90
33715;DHT22;20043;50.998;4.754;2024-03-08T14:17:07;13.20;99.90
33715;DHT22;20043;50.998;4.754;2024-03-08T14:19:35;13.30;99.90
33715;DHT22;20043;50.998;4.754;2024-03-08T14:22:00;13.20;99.90
33715;DHT22;20043;50.998;4.754;2024-03-08T14:24:29;13.20;99.90
33715;DHT22;20043;50.998;4.754;2024-03-08T14:26:55;13.20;99.90
33715;DHT22;20043;50.998;4.754;2024-03-08T14:29:21;13.20;99.90
33715;DHT22;20043;50.998;4.754;2024-03-08T14:31:46;13.10;99.90
33715;DHT22;20043;50.998;4.754;2024-03-08T14:34:12;13.20;99.90
33715;DHT22;20043;50.998;4.754;2024-03-08T14:36:39;13.10;99.90
33715;DHT22;20043;50.998;4.754;2024-03-08T14:39:05;13.10;99.90
33715;DHT22;20043;50.998;4.754;2024-03-08T14:41:33;13.00;99.90
33715;DHT22;20043;50.998;4.754;2024-03-08T14:43:58;13.10;99.90
33715;DHT22;20043;50.998;4.754;2024-03-08T14:46:25;13.10;99.90
33715;DHT22;20043;50.998;4.754;2024-03-08T14:48:55;13.20;99.90
33715;DHT22;20043;50.998;4.754;2024-03-08T14:51:22;13.20;99.90
33715;DHT22;20043;50.998;4.754;2024-03-08T14:53:52;13.30;99.90
33715;DHT22;20043;50.998;4.754;2024-03-08T14:56:20;13.30;99.90
33715;DHT22;20043;50.998;4.754;2024-03-08T14:58:46;13.20;99.90
33715;DHT22;20043;50.998;4.754;2024-03-08T15:01:15;13.10;99.90
33715;DHT22;20043;50.998;4.754;2024-03-08T15:03:43;13.00;99.90
33715;DHT22;20043;50.998;4.754;2024-03-08T15:06:09;13.10;99.90
33715;DHT22;20043;50.998;4.754;2024-03-08T15:08:36;13.00;99.90
33715;DHT22;20043;50.998;4.754;2024-03-08T15:11:02;13.00;99.90
33715;DHT22;20043;50.998;4.754;2024-03-08T15:13:28;13.10;99.90
33715;DHT22;20043;50.998;4.754;2024-03-08T15:16:00;13.20;99.90
33715;DHT22;20043;50.998;4.754;2024-03-08T15:18:26;13.20;99.90
33715;DHT22;20043;50.998;4.754;2024-03-08T15:20:56;13.20;99.90
33715;DHT22;20043;50.998;4.754;2024-03-08T15:23:21;13.30;99.90
33715;DHT22;20043;50.998;4.754;2024-03-08T15:25:50;13.20;99.90
33715;DHT22;20043;50.998;4.754;2024-03-08T15:28:16;13.10;99.90
33715;DHT22;20043;50.998;4.754;2024-03-08T15:30:46;13.10;99.90
33715;DHT22;20043;50.998;4.754;2024-03-08T15:33:13;13.00;99.90
33715;DHT22;20043;50.998;4.754;2024-03-08T15:35:41;13.20;99.90
33715;DHT22;20043;50.998;4.754;2024-03-08T15:38:07;13.10;99.90
33715;DHT22;20043;50.998;4.754;2024-03-08T15:40:33;13.00;99.90
33715;DHT22;20043;50.998;4.754;2024-03-08T15:43:00;12.90;99.90
33715;DHT22;20043;50.998;4.754;2024-03-08T15:45:26;12.80;99.90
33715;DHT22;20043;50.998;4.754;2024-03-08T15:47:57;12.90;99.90
33715;DHT22;20043;50.998;4.754;2024-03-08T15:50:23;12.90;99.90